Edgar B Speer — WQZ9670 — position and weather

sailwx.info

Track history (hours):
 
Tides and Currents Weather Stations Pressure Air Temp Water Temp Dewpoint Dewpoint Depression Visibility Wind Speed Wind Dir Waves Ship Positions

Edgar B Speer

Owner: Great Lakes Fleet, Inc, DULUTH, MN. More information available from US FCC via Universal Licensing System and Coast Guard Vessel Documentation Center.

Last reported at 2015-Apr-27 18:32 UTC. Time now 2015-Apr-28 03:48 UTC.
Position N 47°01' W 091°40'.

Length 306 m; draft 7.2 m.

Type: Cargo ship. MMSI: 366971330.

Date/timePositionNaut miles runAvg speedWind from/ knotsBaromVisibWave heightAir tempDewpointWater temp
2015-Apr-27 18:32N 47°01' W 091°40'10 8.6
2015-Apr-27 17:25N 47°02' W 091°26'30610.6
2015-Apr-26 12:31N 46°14' W 084°06'8 8.6
2015-Apr-26 11:33N 46°07' W 084°01'1010.4
2015-Apr-26 10:33N 45°58' W 083°53'  
2015-Apr-22 02:32N 46°14' W 084°10'6 5.6
2015-Apr-22 01:22N 46°20' W 084°13'304 6.4
2015-Apr-20 02:07N 47°02' W 091°31'611.5
2015-Apr-20 01:34N 47°00' W 091°40'1 0.1
2015-Apr-19 15:25N 47°01' W 091°40'1 1.3
2015-Apr-19 14:34N 46°60' W 091°41'8 2.3
2015-Apr-19 11:14N 47°02' W 091°30'3 4.4
2015-Apr-19 10:34N 47°00' W 091°33'4 4.2
2015-Apr-19 09:33N 46°58' W 091°39'4 4.2
2015-Apr-19 08:33N 46°56' W 091°44'4 4.3
2015-Apr-19 07:33N 46°53' W 091°49'9 8.5
2015-Apr-19 06:33N 46°48' W 091°59'3 2.9
2015-Apr-19 05:30N 46°47' W 092°02'0 0.0
2015-Apr-19 04:33N 46°47' W 092°02'0 0.0
2015-Apr-19 03:21N 46°47' W 092°02'0 0.0
2015-Apr-19 02:24N 46°47' W 092°02'0 0.0
2015-Apr-19 01:24N 46°47' W 092°02'0 0.0
2015-Apr-19 00:33N 46°47' W 092°02'0 0.0
2015-Apr-18 23:33N 46°47' W 092°02'0 0.0
2015-Apr-18 22:33N 46°47' W 092°02'0 0.0
2015-Apr-18 21:33N 46°47' W 092°02'0 0.0
2015-Apr-18 20:34N 46°47' W 092°02'0 0.0
2015-Apr-18 19:33N 46°47' W 092°02'0 0.0
2015-Apr-18 18:33N 46°47' W 092°02'0 0.0
2015-Apr-18 17:33N 46°47' W 092°02'0 0.0
2015-Apr-18 16:33N 46°47' W 092°02'0 0.0
2015-Apr-18 15:33N 46°47' W 092°02'7 6.8
2015-Apr-18 14:33N 46°49' W 091°53'1110.4
2015-Apr-18 13:33N 46°54' W 091°39'1310.4
2015-Apr-18 12:17N 46°59' W 091°22'1210.4
2015-Apr-18 11:09N 47°04' W 091°06'  
Track history (hours):
 
Tides and Currents Weather Stations Pressure Air Temp Water Temp Dewpoint Dewpoint Depression Visibility Wind Speed Wind Dir Waves Ship Positions

Edgar B Speer

Owner: Great Lakes Fleet, Inc, DULUTH, MN. More information available from US FCC via Universal Licensing System and Coast Guard Vessel Documentation Center.

Last reported at 2015-Apr-27 18:32 UTC. Time now 2015-Apr-28 03:48 UTC.
Position N 47°01' W 091°40'.

Length 306 m; draft 7.2 m.

Type: Cargo ship. MMSI: 366971330.

Date/timePositionNaut miles runAvg speedWind from/ knotsBaromVisibWave heightAir tempDewpointWater temp
2015-Apr-27 18:32N 47°01' W 091°40'10 8.6
2015-Apr-27 17:25N 47°02' W 091°26'30610.6
2015-Apr-26 12:31N 46°14' W 084°06'8 8.6
2015-Apr-26 11:33N 46°07' W 084°01'1010.4
2015-Apr-26 10:33N 45°58' W 083°53'  
2015-Apr-22 02:32N 46°14' W 084°10'6 5.6
2015-Apr-22 01:22N 46°20' W 084°13'304 6.4
2015-Apr-20 02:07N 47°02' W 091°31'611.5
2015-Apr-20 01:34N 47°00' W 091°40'1 0.1
2015-Apr-19 15:25N 47°01' W 091°40'1 1.3
2015-Apr-19 14:34N 46°60' W 091°41'8 2.3
2015-Apr-19 11:14N 47°02' W 091°30'3 4.4
2015-Apr-19 10:34N 47°00' W 091°33'4 4.2
2015-Apr-19 09:33N 46°58' W 091°39'4 4.2
2015-Apr-19 08:33N 46°56' W 091°44'4 4.3
2015-Apr-19 07:33N 46°53' W 091°49'9 8.5
2015-Apr-19 06:33N 46°48' W 091°59'3 2.9
2015-Apr-19 05:30N 46°47' W 092°02'0 0.0
2015-Apr-19 04:33N 46°47' W 092°02'0 0.0
2015-Apr-19 03:21N 46°47' W 092°02'0 0.0
2015-Apr-19 02:24N 46°47' W 092°02'0 0.0
2015-Apr-19 01:24N 46°47' W 092°02'0 0.0
2015-Apr-19 00:33N 46°47' W 092°02'0 0.0
2015-Apr-18 23:33N 46°47' W 092°02'0 0.0
2015-Apr-18 22:33N 46°47' W 092°02'0 0.0
2015-Apr-18 21:33N 46°47' W 092°02'0 0.0
2015-Apr-18 20:34N 46°47' W 092°02'0 0.0
2015-Apr-18 19:33N 46°47' W 092°02'0 0.0
2015-Apr-18 18:33N 46°47' W 092°02'0 0.0
2015-Apr-18 17:33N 46°47' W 092°02'0 0.0
2015-Apr-18 16:33N 46°47' W 092°02'0 0.0
2015-Apr-18 15:33N 46°47' W 092°02'7 6.8
2015-Apr-18 14:33N 46°49' W 091°53'1110.4
2015-Apr-18 13:33N 46°54' W 091°39'1310.4
2015-Apr-18 12:17N 46°59' W 091°22'1210.4
2015-Apr-18 11:09N 47°04' W 091°06'  

Dump ship's entire track history